createdAt,value
2018-04-08T00:01:41.650Z,10.18
2018-04-08T00:11:37.907Z,10.16
2018-04-08T00:21:33.349Z,10.03
2018-04-08T00:31:30.788Z,10.10
2018-04-08T00:41:26.850Z,9.93
2018-04-08T00:51:22.275Z,10.01
2018-04-08T01:01:21.143Z,9.98
2018-04-08T01:11:17.756Z,10.06
2018-04-08T01:21:13.228Z,9.98
2018-04-08T01:31:09.080Z,9.88
2018-04-08T01:41:04.387Z,9.92
2018-04-08T01:51:01.615Z,9.85
2018-04-08T02:00:57.861Z,9.88
2018-04-08T02:10:53.828Z,9.85
2018-04-08T02:20:50.435Z,9.85
2018-04-08T02:30:44.984Z,9.85
2018-04-08T02:40:42.932Z,9.79
2018-04-08T02:50:41.253Z,9.70
2018-04-08T03:00:37.111Z,9.78
2018-04-08T03:10:33.444Z,9.65
2018-04-08T03:20:31.227Z,9.74
2018-04-08T03:30:28.157Z,9.56
2018-04-08T03:40:23.147Z,9.53
2018-04-08T03:50:21.695Z,9.50
2018-04-08T04:00:17.948Z,9.45
2018-04-08T04:10:13.480Z,9.10
2018-04-08T04:20:10.589Z,9.19
2018-04-08T04:30:06.168Z,9.10
2018-04-08T04:40:01.342Z,9.10
2018-04-08T04:49:57.747Z,9.17
2018-04-08T04:59:56.099Z,9.27
2018-04-08T05:09:48.981Z,9.42
2018-04-08T05:19:41.960Z,9.58
2018-04-08T05:29:39.114Z,9.68
2018-04-08T05:39:36.612Z,9.74
2018-04-08T05:49:27.324Z,9.82
2018-04-08T05:59:25.516Z,9.88
2018-04-08T06:09:23.413Z,10.21
2018-04-08T06:19:19.348Z,10.07
2018-04-08T06:29:11.876Z,10.58
2018-04-08T06:39:09.335Z,10.67
2018-04-08T06:49:04.378Z,10.73
2018-04-08T06:58:56.486Z,10.63
2018-04-08T07:08:52.732Z,11.03
2018-04-08T07:18:49.678Z,11.11
2018-04-08T07:28:47.818Z,11.67
2018-04-08T07:38:44.110Z,11.57
2018-04-08T07:48:41.806Z,11.79
2018-04-08T07:58:39.981Z,11.89
2018-04-08T08:08:35.643Z,11.39
2018-04-08T08:18:29.849Z,11.39
2018-04-08T08:28:23.599Z,11.38
2018-04-08T08:38:19.673Z,11.50
2018-04-08T08:48:14.419Z,11.81
2018-04-08T08:58:10.848Z,12.45
2018-04-08T09:08:07.654Z,12.74
2018-04-08T09:18:04.238Z,12.86
2018-04-08T09:27:50.337Z,13.11
2018-04-08T09:37:40.827Z,13.27
2018-04-08T09:47:38.136Z,14.07
2018-04-08T09:57:32.843Z,14.13
2018-04-08T10:07:26.185Z,14.34
2018-04-08T10:17:23.488Z,15.49
2018-04-08T10:27:18.892Z,15.73
2018-04-08T10:37:14.580Z,15.71
2018-04-08T10:47:11.472Z,16.27
2018-04-08T10:56:48.522Z,16.48
2018-04-08T11:06:25.774Z,16.12
2018-04-08T11:16:06.522Z,17.30
2018-04-08T11:25:36.245Z,17.43
2018-04-08T11:35:13.926Z,18.89
2018-04-08T11:44:51.429Z,20.19
2018-04-08T11:54:29.814Z,20.03
2018-04-08T12:04:07.781Z,20.31
2018-04-08T12:13:43.953Z,20.72
2018-04-08T12:23:21.658Z,20.64
2018-04-08T12:33:04.267Z,20.49
2018-04-08T12:42:33.873Z,21.35
2018-04-08T12:52:11.353Z,21.74
2018-04-08T13:01:51.925Z,22.00
2018-04-08T13:11:31.030Z,23.48
2018-04-08T13:21:10.288Z,23.97
2018-04-08T13:30:49.276Z,23.53
2018-04-08T13:40:28.272Z,24.79
2018-04-08T13:50:08.227Z,26.61
2018-04-08T13:59:47.727Z,25.52
2018-04-08T14:09:31.288Z,25.27
2018-04-08T14:19:02.110Z,24.63
2018-04-08T14:28:40.402Z,25.46
2018-04-08T14:38:20.612Z,25.70
2018-04-08T14:48:03.277Z,26.28
2018-04-08T14:57:32.852Z,25.57
2018-04-08T15:07:06.737Z,24.75
2018-04-08T15:16:40.048Z,24.07
2018-04-08T15:26:14.932Z,23.09
2018-04-08T15:35:53.310Z,23.64
2018-04-08T15:45:32.000Z,23.89
2018-04-08T15:55:08.786Z,22.42
2018-04-08T16:04:40.822Z,21.36
2018-04-08T16:14:06.995Z,21.29
2018-04-08T16:23:42.683Z,20.57
2018-04-08T16:33:18.856Z,20.18
2018-04-08T16:42:55.073Z,19.71
2018-04-08T16:52:31.058Z,19.14
2018-04-08T17:02:06.995Z,19.02
2018-04-08T17:11:42.664Z,17.50
2018-04-08T17:21:18.198Z,17.25
2018-04-08T17:30:54.235Z,16.04
2018-04-08T17:40:31.835Z,15.83
2018-04-08T17:49:59.782Z,15.38
2018-04-08T17:59:54.634Z,14.64
2018-04-08T18:09:46.686Z,14.31
2018-04-08T18:19:41.655Z,13.86
2018-04-08T18:29:38.369Z,13.52
2018-04-08T18:39:32.602Z,13.11
2018-04-08T18:49:26.777Z,12.85
2018-04-08T18:59:30.275Z,12.60
2018-04-08T19:09:22.959Z,12.05
2018-04-08T19:19:19.584Z,11.71
2018-04-08T19:29:14.742Z,11.32
2018-04-08T19:39:11.740Z,10.87
2018-04-08T19:49:03.408Z,10.67
2018-04-08T19:58:58.636Z,10.37
2018-04-08T20:08:54.129Z,10.28
2018-04-08T20:18:49.763Z,10.00
2018-04-08T20:28:46.834Z,9.88
2018-04-08T20:38:40.409Z,10.22
2018-04-08T20:48:37.729Z,9.72
2018-04-08T20:58:34.633Z,9.43
2018-04-08T21:08:29.717Z,9.19
2018-04-08T21:18:24.872Z,8.93
2018-04-08T21:28:21.992Z,8.51
2018-04-08T21:38:19.409Z,8.77
2018-04-08T21:48:15.782Z,8.36
2018-04-08T21:58:11.593Z,8.14
2018-04-08T22:08:08.811Z,8.03
2018-04-08T22:18:05.131Z,8.19
2018-04-08T22:28:01.372Z,7.82
2018-04-08T22:37:54.732Z,7.81
2018-04-08T22:47:52.323Z,7.57
2018-04-08T22:57:47.541Z,7.53
2018-04-08T23:07:41.603Z,7.29
2018-04-08T23:17:37.941Z,7.35
2018-04-08T23:27:34.675Z,7.13
2018-04-08T23:37:31.831Z,7.35
2018-04-08T23:47:27.821Z,7.20
2018-04-08T23:57:22.481Z,7.37
